Time;durP1;ratioP1;P1;durP2;ratioP2;P2;SDS_P1;SDS_P2;PMS_P1;PMS_P2;Temp;Humidity;BMP_temperature;BMP_pressure;BME280_temperature;BME280_humidity;BME280_pressure;Samples;Min_cycle;Max_cycle;Signal;HPM_P1;HPM_P2
2022/03/15 00:00:40;;;;;;;;;;;4.30;99.90;;;;;;5137699;27;19972;-83
2022/03/15 00:03:06;;;;;;;;;;;4.30;99.90;;;;;;5137048;27;20272;-83
2022/03/15 00:05:31;;;;;;;;;;;4.30;99.90;;;;;;5104632;27;19923;-83
2022/03/15 00:07:57;;;;;;;;;;;4.20;99.90;;;;;;5103331;27;19962;-82
2022/03/15 00:10:23;;;;;;;;;;;4.30;99.90;;;;;;5137002;27;19923;-83
2022/03/15 00:12:49;;;;;;;;;;;4.20;99.90;;;;;;5137246;27;19930;-83
2022/03/15 00:15:15;;;;;;;;;;;4.10;99.90;;;;;;5119766;27;19927;-84
2022/03/15 00:17:44;;;;;;;;;;;4.30;99.90;;;;;;5123734;27;19923;-84
2022/03/15 00:20:12;;;;;;;;;;;4.30;99.90;;;;;;5119547;27;19983;-82
2022/03/15 00:22:37;;;;;;;;;;;4.10;99.90;;;;;;5132437;27;19930;-83
2022/03/15 00:25:05;;;;;;;;;;;4.10;99.90;;;;;;5135783;27;19971;-86
2022/03/15 00:27:31;;;;;;;;;;;4.30;99.90;;;;;;5136943;27;20293;-83
2022/03/15 00:29:57;;;;;;;;;;;4.30;99.90;;;;;;5137155;27;19983;-83
2022/03/15 00:32:23;;;;;;;;;;;4.20;99.90;;;;;;5135076;27;19972;-85
2022/03/15 00:34:49;;;;;;;;;;;4.20;99.90;;;;;;5119352;27;19984;-84
2022/03/15 00:37:14;;;;;;;;;;;4.20;99.90;;;;;;5149501;27;19972;-83
2022/03/15 00:39:41;;;;;;;;;;;4.20;99.90;;;;;;5126472;27;20355;-83
2022/03/15 00:42:07;;;;;;;;;;;4.10;99.90;;;;;;5121986;27;20035;-83
2022/03/15 00:44:33;;;;;;;;;;;4.10;99.90;;;;;;5120055;27;19923;-84
2022/03/15 00:46:58;;;;;;;;;;;4.10;99.90;;;;;;5137082;27;19929;-83
2022/03/15 00:49:24;;;;;;;;;;;4.10;99.90;;;;;;5124230;27;20010;-84
2022/03/15 00:51:50;;;;;;;;;;;4.10;99.90;;;;;;5134748;27;19934;-84
2022/03/15 00:54:16;;;;;;;;;;;4.10;99.90;;;;;;5116290;27;21307;-83
2022/03/15 00:56:41;;;;;;;;;;;4.10;99.90;;;;;;5117668;27;19966;-83
2022/03/15 00:59:08;;;;;;;;;;;4.20;99.90;;;;;;5138668;27;19926;-84
2022/03/15 01:01:34;;;;;;;;;;;4.20;99.90;;;;;;5147688;27;19966;-83
2022/03/15 01:04:00;;;;;;;;;;;4.20;99.90;;;;;;5119345;27;19963;-83
2022/03/15 01:06:25;;;;;;;;;;;4.20;99.90;;;;;;5153331;27;19922;-84
2022/03/15 01:08:51;;;;;;;;;;;4.30;99.90;;;;;;5140403;27;20312;-85
2022/03/15 01:11:16;;;;;;;;;;;4.30;99.90;;;;;;5151450;27;19927;-84
2022/03/15 01:13:42;;;;;;;;;;;4.40;99.90;;;;;;5136473;27;20300;-83
2022/03/15 01:16:07;;;;;;;;;;;4.20;99.90;;;;;;5132403;27;19929;-84
2022/03/15 01:18:34;;;;;;;;;;;4.20;99.90;;;;;;5119594;27;19923;-83
2022/03/15 01:20:59;;;;;;;;;;;4.10;99.90;;;;;;5130705;27;19923;-83
2022/03/15 01:23:25;;;;;;;;;;;4.10;99.90;;;;;;5154892;27;19922;-84
2022/03/15 01:25:50;;;;;;;;;;;4.00;99.90;;;;;;5103578;27;19930;-84
2022/03/15 01:28:16;;;;;;;;;;;4.00;99.90;;;;;;5140700;27;19949;-84
2022/03/15 01:30:42;;;;;;;;;;;4.00;99.90;;;;;;5122248;27;19923;-84
2022/03/15 01:33:07;;;;;;;;;;;3.90;99.90;;;;;;5138832;27;19923;-84
2022/03/15 01:35:33;;;;;;;;;;;3.90;99.90;;;;;;5123280;27;19930;-83
2022/03/15 01:37:59;;;;;;;;;;;3.80;99.90;;;;;;5122674;27;19945;-83
2022/03/15 01:40:24;;;;;;;;;;;3.80;99.90;;;;;;5156392;27;20259;-84
2022/03/15 01:42:50;;;;;;;;;;;3.80;99.90;;;;;;5113686;27;19974;-84
2022/03/15 01:45:16;;;;;;;;;;;3.80;99.90;;;;;;5143677;27;19923;-83
2022/03/15 01:47:43;;;;;;;;;;;3.80;99.90;;;;;;5128507;27;19930;-83
2022/03/15 01:50:09;;;;;;;;;;;3.90;99.90;;;;;;5109416;27;19931;-83
2022/03/15 01:52:34;;;;;;;;;;;4.00;99.90;;;;;;5122327;27;19923;-83
2022/03/15 01:55:00;;;;;;;;;;;4.00;99.90;;;;;;5118758;27;20318;-84
2022/03/15 01:57:26;;;;;;;;;;;4.10;99.90;;;;;;5147053;27;20283;-83
2022/03/15 01:59:51;;;;;;;;;;;4.10;99.90;;;;;;5151976;27;19933;-84
2022/03/15 02:02:17;;;;;;;;;;;4.10;99.90;;;;;;5147204;27;19927;-83
2022/03/15 02:04:43;;;;;;;;;;;4.20;99.90;;;;;;5150034;27;20418;-84
2022/03/15 02:07:10;;;;;;;;;;;4.30;99.90;;;;;;5129272;27;20385;-84
2022/03/15 02:09:35;;;;;;;;;;;4.20;99.90;;;;;;5151131;27;19934;-85
2022/03/15 02:12:01;;;;;;;;;;;4.30;99.90;;;;;;5146170;27;19923;-83
2022/03/15 02:14:27;;;;;;;;;;;4.30;99.90;;;;;;5109911;27;19974;-83
2022/03/15 02:16:53;;;;;;;;;;;4.30;99.90;;;;;;5138791;27;20006;-83
2022/03/15 02:19:19;;;;;;;;;;;4.30;99.90;;;;;;5126452;27;19922;-84
2022/03/15 02:21:44;;;;;;;;;;;4.30;99.90;;;;;;5141162;27;19927;-84
2022/03/15 02:24:10;;;;;;;;;;;4.40;99.90;;;;;;5145039;27;19927;-83
2022/03/15 02:26:36;;;;;;;;;;;4.30;99.90;;;;;;5117189;27;19924;-83
2022/03/15 02:29:01;;;;;;;;;;;4.40;99.90;;;;;;5131920;27;19967;-85
2022/03/15 02:31:27;;;;;;;;;;;4.50;99.90;;;;;;5154601;27;20013;-83
2022/03/15 02:33:53;;;;;;;;;;;4.60;99.90;;;;;;5107575;27;19923;-83
2022/03/15 02:36:18;;;;;;;;;;;4.60;99.90;;;;;;5126276;27;19986;-83
2022/03/15 02:38:45;;;;;;;;;;;4.60;99.90;;;;;;5145772;27;20009;-83
2022/03/15 02:41:11;;;;;;;;;;;4.70;99.90;;;;;;5141908;27;20041;-84
2022/03/15 02:43:36;;;;;;;;;;;4.60;99.90;;;;;;5142344;27;19953;-84
2022/03/15 02:46:02;;;;;;;;;;;4.70;99.90;;;;;;5137875;27;20394;-84
2022/03/15 02:48:28;;;;;;;;;;;4.80;99.90;;;;;;5151015;27;19929;-84
2022/03/15 02:50:57;;;;;;;;;;;4.90;99.90;;;;;;5138318;27;19923;-84
2022/03/15 02:53:23;;;;;;;;;;;4.80;99.90;;;;;;5134429;27;20315;-84
2022/03/15 02:55:49;;;;;;;;;;;4.90;99.90;;;;;;5123120;27;19985;-83
2022/03/15 02:58:15;;;;;;;;;;;5.00;99.90;;;;;;5121626;27;19923;-83
2022/03/15 03:00:41;;;;;;;;;;;5.00;99.90;;;;;;5135897;27;20372;-84
2022/03/15 03:03:07;;;;;;;;;;;5.00;99.90;;;;;;5144789;27;19998;-84
2022/03/15 03:05:32;;;;;;;;;;;5.00;99.90;;;;;;5116387;27;19934;-83
2022/03/15 03:07:58;;;;;;;;;;;5.20;99.90;;;;;;5138122;27;20013;-84
2022/03/15 03:10:24;;;;;;;;;;;5.10;99.90;;;;;;5133054;27;19976;-84
2022/03/15 03:12:50;;;;;;;;;;;5.10;99.90;;;;;;5121364;27;19930;-83
2022/03/15 03:15:20;;;;;;;;;;;5.10;99.90;;;;;;5124722;27;20018;-84
2022/03/15 03:17:46;;;;;;;;;;;5.20;99.90;;;;;;5134158;27;20411;-83
2022/03/15 03:20:13;;;;;;;;;;;5.20;99.90;;;;;;5153560;27;19923;-84
2022/03/15 03:22:39;;;;;;;;;;;5.20;99.90;;;;;;5125928;27;19930;-84
2022/03/15 03:25:05;;;;;;;;;;;5.30;99.90;;;;;;5129965;27;19930;-84
2022/03/15 03:27:31;;;;;;;;;;;5.30;99.90;;;;;;5145122;27;19927;-84
2022/03/15 03:29:58;;;;;;;;;;;5.30;99.90;;;;;;5141585;27;19981;-84
2022/03/15 03:32:25;;;;;;;;;;;5.30;99.90;;;;;;5139584;27;20685;-84
2022/03/15 03:34:51;;;;;;;;;;;5.40;99.90;;;;;;5138128;27;19930;-83
2022/03/15 03:37:17;;;;;;;;;;;5.40;99.90;;;;;;5120677;27;20286;-83
2022/03/15 03:39:42;;;;;;;;;;;5.40;99.90;;;;;;5145017;27;19927;-84
2022/03/15 03:42:08;;;;;;;;;;;5.50;99.90;;;;;;5120972;27;19930;-84
2022/03/15 03:44:36;;;;;;;;;;;5.40;99.90;;;;;;5143724;27;20371;-84
2022/03/15 03:47:02;;;;;;;;;;;5.50;99.90;;;;;;5117977;27;19922;-83
2022/03/15 03:49:29;;;;;;;;;;;5.50;99.90;;;;;;5137402;27;19929;-84
2022/03/15 03:51:55;;;;;;;;;;;5.50;99.90;;;;;;5107457;27;19923;-83
2022/03/15 03:54:20;;;;;;;;;;;5.50;99.90;;;;;;5140799;27;20029;-84
2022/03/15 03:56:46;;;;;;;;;;;5.50;99.90;;;;;;5133355;27;20373;-84
2022/03/15 03:59:12;;;;;;;;;;;5.40;99.90;;;;;;5108233;27;19975;-84
2022/03/15 04:01:38;;;;;;;;;;;5.40;99.90;;;;;;5143510;27;19927;-83
2022/03/15 04:04:05;;;;;;;;;;;5.40;99.90;;;;;;5121764;27;20015;-84
2022/03/15 04:06:32;;;;;;;;;;;5.40;99.90;;;;;;5156367;27;19927;-85
2022/03/15 04:08:59;;;;;;;;;;;5.40;99.90;;;;;;5123017;27;19972;-84
2022/03/15 04:11:25;;;;;;;;;;;5.40;99.90;;;;;;5120891;27;19923;-84
2022/03/15 04:13:51;;;;;;;;;;;5.40;99.90;;;;;;5136747;27;19934;-84
2022/03/15 04:16:17;;;;;;;;;;;5.30;99.90;;;;;;5120021;27;19928;-84
2022/03/15 04:18:43;;;;;;;;;;;5.30;99.90;;;;;;5120026;27;19930;-84
2022/03/15 04:21:09;;;;;;;;;;;5.30;99.90;;;;;;5138293;27;19923;-89
2022/03/15 04:23:34;;;;;;;;;;;5.20;99.90;;;;;;5137252;27;19973;-83
2022/03/15 04:26:00;;;;;;;;;;;5.20;99.90;;;;;;5140083;27;20021;-83
2022/03/15 04:28:26;;;;;;;;;;;5.20;99.90;;;;;;5123880;27;20367;-83
2022/03/15 04:30:52;;;;;;;;;;;5.10;99.90;;;;;;5145390;27;19938;-85
2022/03/15 04:33:17;;;;;;;;;;;5.10;99.90;;;;;;5133966;27;20374;-83
2022/03/15 04:35:43;;;;;;;;;;;5.10;99.90;;;;;;5152393;27;19946;-83
2022/03/15 04:38:09;;;;;;;;;;;5.10;99.90;;;;;;5139972;27;19937;-83
2022/03/15 04:40:34;;;;;;;;;;;5.10;99.90;;;;;;5136974;27;19923;-84
2022/03/15 04:43:01;;;;;;;;;;;5.00;99.90;;;;;;5123124;27;19923;-83
2022/03/15 04:45:27;;;;;;;;;;;5.10;99.90;;;;;;5145030;27;19975;-84
2022/03/15 04:47:52;;;;;;;;;;;5.00;99.90;;;;;;5140626;27;19923;-84
2022/03/15 04:50:18;;;;;;;;;;;5.00;99.90;;;;;;5156149;27;19927;-84
2022/03/15 04:52:44;;;;;;;;;;;5.00;99.90;;;;;;5139226;27;19922;-83
2022/03/15 04:55:09;;;;;;;;;;;5.00;99.90;;;;;;5143226;27;19923;-84
2022/03/15 04:57:35;;;;;;;;;;;5.00;99.90;;;;;;5119200;27;19970;-83
2022/03/15 05:00:01;;;;;;;;;;;4.90;99.90;;;;;;5119824;27;19923;-83
2022/03/15 05:02:27;;;;;;;;;;;5.10;99.90;;;;;;5133170;27;20275;-83
2022/03/15 05:04:53;;;;;;;;;;;5.10;99.90;;;;;;5152473;27;19931;-84
2022/03/15 05:07:18;;;;;;;;;;;5.10;99.90;;;;;;5113024;27;20027;-84
2022/03/15 05:12:28;;;;;;;;;;;5.20;99.90;;;;;;5131573;27;19930;-84
2022/03/15 05:14:54;;;;;;;;;;;5.20;99.90;;;;;;5133866;27;19923;-83
2022/03/15 05:17:20;;;;;;;;;;;5.20;99.90;;;;;;5144339;27;20381;-84
2022/03/15 05:19:46;;;;;;;;;;;5.20;99.90;;;;;;5109704;27;19975;-83
2022/03/15 05:22:12;;;;;;;;;;;5.20;99.90;;;;;;5119305;27;20002;-84
2022/03/15 05:24:38;;;;;;;;;;;5.30;99.90;;;;;;5119080;27;20075;-83
2022/03/15 05:27:03;;;;;;;;;;;5.30;99.90;;;;;;5142310;27;19922;-84
2022/03/15 05:29:29;;;;;;;;;;;5.30;99.90;;;;;;5139429;27;19931;-83
2022/03/15 05:31:55;;;;;;;;;;;5.30;99.90;;;;;;5121092;27;20010;-85
2022/03/15 05:34:20;;;;;;;;;;;5.30;99.90;;;;;;5139203;27;19948;-84
2022/03/15 05:36:48;;;;;;;;;;;5.30;99.90;;;;;;5136402;27;19929;-83
2022/03/15 05:39:14;;;;;;;;;;;5.30;99.90;;;;;;5158395;27;20367;-83
2022/03/15 05:41:41;;;;;;;;;;;5.40;99.90;;;;;;5122685;27;19923;-84
2022/03/15 05:44:07;;;;;;;;;;;5.40;99.90;;;;;;5128410;27;20009;-84
2022/03/15 05:46:32;;;;;;;;;;;5.40;99.90;;;;;;5137807;27;19973;-84
2022/03/15 05:48:58;;;;;;;;;;;5.40;99.90;;;;;;5122153;27;19923;-84
2022/03/15 05:51:23;;;;;;;;;;;5.40;99.90;;;;;;5126662;27;19923;-84
2022/03/15 05:53:49;;;;;;;;;;;5.50;99.90;;;;;;5122955;27;19936;-83
2022/03/15 05:56:15;;;;;;;;;;;5.40;99.90;;;;;;5143371;27;19923;-87
2022/03/15 05:58:42;;;;;;;;;;;5.40;99.90;;;;;;5146556;27;20014;-85
2022/03/15 06:01:08;;;;;;;;;;;5.50;99.90;;;;;;5128143;27;19923;-83
2022/03/15 06:03:34;;;;;;;;;;;5.50;99.90;;;;;;5139693;27;19923;-83
2022/03/15 06:06:00;;;;;;;;;;;5.50;99.90;;;;;;5123566;27;20311;-83
2022/03/15 06:08:26;;;;;;;;;;;5.50;99.90;;;;;;5140685;27;19955;-83
2022/03/15 06:10:52;;;;;;;;;;;5.50;99.90;;;;;;5127078;27;19931;-83
2022/03/15 06:13:18;;;;;;;;;;;5.50;99.90;;;;;;5122368;27;20286;-84
2022/03/15 06:15:43;;;;;;;;;;;5.50;99.90;;;;;;5141602;27;19983;-83
2022/03/15 06:18:09;;;;;;;;;;;5.60;99.90;;;;;;5157704;27;19927;-84
2022/03/15 06:20:35;;;;;;;;;;;5.60;99.90;;;;;;5118095;27;19926;-85
2022/03/15 06:23:01;;;;;;;;;;;5.70;99.90;;;;;;5140262;27;19930;-84
2022/03/15 06:25:26;;;;;;;;;;;5.60;99.90;;;;;;5139276;27;20390;-84
2022/03/15 06:27:52;;;;;;;;;;;5.70;99.90;;;;;;5139505;27;19931;-84
2022/03/15 06:30:19;;;;;;;;;;;5.60;99.90;;;;;;5122020;27;19977;-83
2022/03/15 06:32:45;;;;;;;;;;;5.50;99.90;;;;;;5121464;27;19923;-83
2022/03/15 06:35:12;;;;;;;;;;;5.60;99.90;;;;;;5158695;27;19930;-83
2022/03/15 06:37:39;;;;;;;;;;;5.70;99.90;;;;;;5139283;27;19930;-83
2022/03/15 06:40:06;;;;;;;;;;;5.70;99.90;;;;;;5139185;27;20026;-84
2022/03/15 06:42:31;;;;;;;;;;;5.70;99.90;;;;;;5121291;27;20317;-83
2022/03/15 06:44:57;;;;;;;;;;;5.70;99.90;;;;;;5145487;27;19952;-82
2022/03/15 06:47:23;;;;;;;;;;;5.70;99.90;;;;;;5123667;27;19929;-85
2022/03/15 06:49:48;;;;;;;;;;;5.80;99.90;;;;;;5128889;27;19930;-83
2022/03/15 06:52:14;;;;;;;;;;;5.80;99.90;;;;;;5155305;27;19923;-83
2022/03/15 06:54:39;;;;;;;;;;;5.80;99.90;;;;;;5124934;27;19930;-82
2022/03/15 06:57:05;;;;;;;;;;;5.80;99.90;;;;;;5128349;27;19991;-83
2022/03/15 06:59:30;;;;;;;;;;;5.90;99.90;;;;;;5138696;27;20427;-83
2022/03/15 07:01:56;;;;;;;;;;;5.80;99.90;;;;;;5121710;27;19933;-83
2022/03/15 07:04:22;;;;;;;;;;;5.90;99.90;;;;;;5138457;27;19974;-84
2022/03/15 07:06:47;;;;;;;;;;;5.90;99.90;;;;;;5123329;27;19923;-85
2022/03/15 07:09:13;;;;;;;;;;;5.90;99.90;;;;;;5159385;27;19962;-84
2022/03/15 07:11:38;;;;;;;;;;;6.00;99.90;;;;;;5158997;27;19922;-84
2022/03/15 07:14:05;;;;;;;;;;;6.00;99.90;;;;;;5159135;27;19923;-85
2022/03/15 07:16:31;;;;;;;;;;;6.10;99.90;;;;;;5140937;27;19985;-85
2022/03/15 07:18:56;;;;;;;;;;;6.10;99.90;;;;;;5140571;27;20421;-85
2022/03/15 07:21:22;;;;;;;;;;;6.20;99.90;;;;;;5140724;27;19923;-85
2022/03/15 07:23:50;;;;;;;;;;;6.20;99.90;;;;;;5140441;27;19923;-83
2022/03/15 07:26:16;;;;;;;;;;;6.20;99.90;;;;;;5106256;27;19967;-85
2022/03/15 07:28:42;;;;;;;;;;;6.30;99.90;;;;;;5120455;27;19923;-81
2022/03/15 07:31:07;;;;;;;;;;;6.30;99.90;;;;;;5129261;27;19943;-81
2022/03/15 07:33:33;;;;;;;;;;;6.40;99.90;;;;;;5148403;27;20388;-82
2022/03/15 07:35:59;;;;;;;;;;;6.40;99.90;;;;;;5158080;27;19923;-82
2022/03/15 07:38:25;;;;;;;;;;;6.60;99.90;;;;;;5132082;27;19923;-82
2022/03/15 07:40:52;;;;;;;;;;;6.60;99.90;;;;;;5120585;27;19931;-82
2022/03/15 07:43:23;;;;;;;;;;;6.80;99.90;;;;;;5123420;27;20278;-83
2022/03/15 07:45:49;;;;;;;;;;;6.90;99.90;;;;;;5143141;27;19923;-82
2022/03/15 07:48:16;;;;;;;;;;;7.00;99.90;;;;;;5141066;27;20021;-82
2022/03/15 07:50:41;;;;;;;;;;;7.10;99.90;;;;;;5124428;27;19929;-84
2022/03/15 07:53:07;;;;;;;;;;;7.20;99.90;;;;;;5157077;27;20013;-82
2022/03/15 07:55:34;;;;;;;;;;;7.30;99.90;;;;;;5119644;27;19967;-82
2022/03/15 07:57:59;;;;;;;;;;;7.30;99.90;;;;;;5121495;27;19930;-82
2022/03/15 08:00:25;;;;;;;;;;;7.50;99.90;;;;;;5140204;27;19949;-82
2022/03/15 08:02:52;;;;;;;;;;;7.60;99.90;;;;;;5131996;27;19923;-82
2022/03/15 08:05:18;;;;;;;;;;;7.70;99.90;;;;;;5103867;27;19927;-81
2022/03/15 08:07:43;;;;;;;;;;;7.80;99.90;;;;;;5120116;27;19923;-83
2022/03/15 08:10:10;;;;;;;;;;;8.00;99.90;;;;;;5110611;27;19975;-82
2022/03/15 08:12:37;;;;;;;;;;;8.00;99.90;;;;;;5137436;27;19973;-82
2022/03/15 08:15:03;;;;;;;;;;;8.10;99.90;;;;;;5137199;27;19931;-83
2022/03/15 08:17:29;;;;;;;;;;;8.20;99.90;;;;;;5120338;27;19930;-82
2022/03/15 08:19:55;;;;;;;;;;;8.30;99.90;;;;;;5119884;27;19923;-81
2022/03/15 08:22:20;;;;;;;;;;;8.30;99.90;;;;;;5120220;27;20275;-83
2022/03/15 08:24:46;;;;;;;;;;;8.40;99.90;;;;;;5120055;27;19929;-82
2022/03/15 08:27:12;;;;;;;;;;;8.50;99.90;;;;;;5121486;27;19945;-82
2022/03/15 08:29:37;;;;;;;;;;;8.50;99.90;;;;;;5120495;27;19945;-82
2022/03/15 08:32:03;;;;;;;;;;;8.60;99.90;;;;;;5113111;27;19934;-81
2022/03/15 08:34:28;;;;;;;;;;;8.60;99.90;;;;;;5136534;27;19923;-84
2022/03/15 08:36:54;;;;;;;;;;;8.60;99.90;;;;;;5148292;27;20406;-82
2022/03/15 08:39:22;;;;;;;;;;;8.70;99.90;;;;;;5145962;27;19994;-84
2022/03/15 08:41:50;;;;;;;;;;;8.70;99.90;;;;;;5121333;27;19927;-82
2022/03/15 08:44:16;;;;;;;;;;;8.70;99.90;;;;;;5123203;27;20317;-82
2022/03/15 08:46:42;;;;;;;;;;;8.80;99.90;;;;;;5149274;27;19929;-82
2022/03/15 08:49:08;;;;;;;;;;;8.90;99.90;;;;;;5128064;27;19930;-83
2022/03/15 08:51:34;;;;;;;;;;;9.00;99.90;;;;;;5127910;27;19970;-82
2022/03/15 08:54:00;;;;;;;;;;;9.10;99.90;;;;;;5143869;27;19954;-81
2022/03/15 08:56:26;;;;;;;;;;;9.20;99.90;;;;;;5125925;27;19923;-79
2022/03/15 08:58:51;;;;;;;;;;;9.30;99.90;;;;;;5143616;27;20022;-79
2022/03/15 09:01:17;;;;;;;;;;;9.40;99.90;;;;;;5137587;27;19927;-80
2022/03/15 09:03:43;;;;;;;;;;;9.50;99.90;;;;;;5149762;27;19988;-79
2022/03/15 09:06:08;;;;;;;;;;;9.60;99.90;;;;;;5125763;27;19930;-80
2022/03/15 09:08:34;;;;;;;;;;;9.80;99.90;;;;;;5113442;27;19923;-79
2022/03/15 09:11:03;;;;;;;;;;;9.90;99.90;;;;;;5123757;27;19927;-81
2022/03/15 09:13:29;;;;;;;;;;;10.00;99.90;;;;;;5148721;27;19930;-85
2022/03/15 09:15:54;;;;;;;;;;;10.10;99.90;;;;;;5130894;27;20386;-90
2022/03/15 09:18:20;;;;;;;;;;;10.10;99.90;;;;;;5154501;27;19926;-81
2022/03/15 09:20:46;;;;;;;;;;;10.20;99.90;;;;;;5131054;27;20328;-81
2022/03/15 09:23:12;;;;;;;;;;;10.40;99.90;;;;;;5151904;27;19923;-81
2022/03/15 09:25:37;;;;;;;;;;;10.50;99.90;;;;;;5148623;27;19923;-82
2022/03/15 09:28:03;;;;;;;;;;;10.50;99.90;;;;;;5133327;27;19923;-82
2022/03/15 09:30:30;;;;;;;;;;;10.60;99.90;;;;;;5148410;27;20291;-81
2022/03/15 09:32:57;;;;;;;;;;;10.70;99.90;;;;;;5120523;27;19930;-81
2022/03/15 09:35:23;;;;;;;;;;;10.80;99.90;;;;;;5111379;27;20403;-81
2022/03/15 09:37:49;;;;;;;;;;;10.70;99.90;;;;;;5143362;27;19962;-80
2022/03/15 09:40:17;;;;;;;;;;;10.80;99.90;;;;;;5121488;27;20017;-81
2022/03/15 09:42:44;;;;;;;;;;;10.80;99.90;;;;;;5141791;27;19923;-83
2022/03/15 09:45:10;;;;;;;;;;;10.80;99.90;;;;;;5143193;27;20459;-83
2022/03/15 09:47:36;;;;;;;;;;;10.80;99.90;;;;;;5141426;27;19971;-82
2022/03/15 09:50:06;;;;;;;;;;;10.80;99.90;;;;;;5128028;27;20001;-82
2022/03/15 09:52:32;;;;;;;;;;;10.90;99.90;;;;;;5149574;27;19927;-83
2022/03/15 09:54:57;;;;;;;;;;;11.00;99.90;;;;;;5129924;27;19927;-83
2022/03/15 09:57:23;;;;;;;;;;;11.10;99.90;;;;;;5132711;27;19924;-83
2022/03/15 09:59:50;;;;;;;;;;;11.10;99.90;;;;;;5135883;27;20355;-82
2022/03/15 10:02:16;;;;;;;;;;;11.10;99.90;;;;;;5121327;27;19974;-82
2022/03/15 10:04:42;;;;;;;;;;;11.10;99.90;;;;;;5101825;27;19930;-83
2022/03/15 10:07:08;;;;;;;;;;;11.10;99.90;;;;;;5119371;27;19924;-82
2022/03/15 10:09:34;;;;;;;;;;;11.10;99.90;;;;;;5154930;27;19970;-82
2022/03/15 10:12:00;;;;;;;;;;;11.00;99.90;;;;;;5135799;27;19955;-82
2022/03/15 10:14:25;;;;;;;;;;;10.90;99.90;;;;;;5101596;27;19924;-84
2022/03/15 10:16:52;;;;;;;;;;;10.90;99.90;;;;;;5126729;27;20023;-83
2022/03/15 10:19:18;;;;;;;;;;;11.00;99.90;;;;;;5143843;27;20025;-83
2022/03/15 10:21:48;;;;;;;;;;;11.00;99.90;;;;;;5140564;27;20024;-82
2022/03/15 10:24:17;;;;;;;;;;;11.00;99.90;;;;;;5133162;27;19937;-83
2022/03/15 10:26:44;;;;;;;;;;;11.00;99.90;;;;;;5121864;27;19923;-84
2022/03/15 10:29:13;;;;;;;;;;;11.10;99.90;;;;;;5148667;27;20268;-85
2022/03/15 10:31:39;;;;;;;;;;;11.10;99.90;;;;;;5124641;27;19923;-83
2022/03/15 10:34:05;;;;;;;;;;;11.10;99.90;;;;;;5139816;27;19943;-83
2022/03/15 10:36:38;;;;;;;;;;;11.00;99.90;;;;;;5153299;27;19923;-83
2022/03/15 10:39:04;;;;;;;;;;;11.00;99.90;;;;;;5138398;27;20003;-82
2022/03/15 10:41:30;;;;;;;;;;;10.90;99.90;;;;;;5135575;27;20010;-82
2022/03/15 10:43:59;;;;;;;;;;;10.80;99.90;;;;;;5118164;27;19972;-81
2022/03/15 10:46:25;;;;;;;;;;;10.80;99.90;;;;;;5125630;27;19923;-81
2022/03/15 10:48:53;;;;;;;;;;;10.80;99.90;;;;;;5128970;27;19923;-80
2022/03/15 10:51:19;;;;;;;;;;;10.70;99.90;;;;;;5138047;27;19923;-81
2022/03/15 10:53:46;;;;;;;;;;;10.70;99.90;;;;;;5129626;27;19931;-82
2022/03/15 10:56:11;;;;;;;;;;;10.70;99.90;;;;;;5118422;27;19924;-82
2022/03/15 10:58:47;;;;;;;;;;;10.60;99.90;;;;;;5135226;27;20298;-81
2022/03/15 11:01:15;;;;;;;;;;;10.60;99.90;;;;;;5127352;27;20056;-82
2022/03/15 11:03:51;;;;;;;;;;;10.60;99.90;;;;;;5138725;27;19923;-82
2022/03/15 11:06:27;;;;;;;;;;;10.50;99.90;;;;;;5155902;27;19945;-81
2022/03/15 11:08:53;;;;;;;;;;;10.50;99.90;;;;;;5154736;27;19923;-81
2022/03/15 11:11:25;;;;;;;;;;;10.60;99.90;;;;;;5121468;27;20275;-81
2022/03/15 11:13:58;;;;;;;;;;;10.60;99.90;;;;;;5155753;27;20312;-80
2022/03/15 11:16:24;;;;;;;;;;;10.60;99.90;;;;;;5154633;27;19923;-82
2022/03/15 11:18:50;;;;;;;;;;;10.60;99.90;;;;;;5154999;27;20302;-80
2022/03/15 11:21:17;;;;;;;;;;;10.60;99.90;;;;;;5132508;27;19927;-81
2022/03/15 11:23:45;;;;;;;;;;;10.60;99.90;;;;;;5122240;27;20389;-82
2022/03/15 11:26:12;;;;;;;;;;;10.60;99.90;;;;;;5151195;27;20520;-82
2022/03/15 11:28:37;;;;;;;;;;;10.60;99.90;;;;;;5147313;27;19928;-82
2022/03/15 11:31:03;;;;;;;;;;;10.60;99.90;;;;;;5146819;27;19945;-82
2022/03/15 11:33:30;;;;;;;;;;;10.60;99.90;;;;;;5135637;27;19927;-82
2022/03/15 11:35:55;;;;;;;;;;;10.60;99.90;;;;;;5145624;27;19972;-83
2022/03/15 11:38:21;;;;;;;;;;;10.60;99.90;;;;;;5128684;27;19928;-82
2022/03/15 11:40:50;;;;;;;;;;;10.60;99.90;;;;;;5134287;27;19928;-84
2022/03/15 11:43:33;;;;;;;;;;;10.60;99.90;;;;;;5135705;27;20368;-82
2022/03/15 11:46:03;;;;;;;;;;;10.50;99.90;;;;;;5134114;27;19923;-82
2022/03/15 11:48:47;;;;;;;;;;;10.50;99.90;;;;;;5147232;27;19968;-82
2022/03/15 11:51:28;;;;;;;;;;;10.50;99.90;;;;;;5132357;27;19933;-82
2022/03/15 11:54:01;;;;;;;;;;;10.50;99.90;;;;;;5142689;27;19929;-84
2022/03/15 11:56:33;;;;;;;;;;;10.40;99.90;;;;;;5137611;27;20687;-81
2022/03/15 11:59:00;;;;;;;;;;;10.40;99.90;;;;;;5153873;27;20014;-81
2022/03/15 12:01:28;;;;;;;;;;;10.40;99.90;;;;;;5142281;27;19923;-81
2022/03/15 12:03:56;;;;;;;;;;;10.40;99.90;;;;;;5137690;27;19945;-81
2022/03/15 12:06:26;;;;;;;;;;;10.40;99.90;;;;;;5141706;27;19966;-81
2022/03/15 12:08:53;;;;;;;;;;;10.40;99.90;;;;;;5154972;27;19934;-81
2022/03/15 12:11:30;;;;;;;;;;;10.40;99.90;;;;;;5134066;27;19971;-81
2022/03/15 12:14:04;;;;;;;;;;;10.40;99.90;;;;;;5133629;27;19924;-81
2022/03/15 12:16:41;;;;;;;;;;;10.40;99.90;;;;;;5134219;27;20081;-81
2022/03/15 12:19:15;;;;;;;;;;;10.40;99.90;;;;;;5117280;27;19976;-81
2022/03/15 12:21:47;;;;;;;;;;;10.30;99.90;;;;;;5116457;27;19923;-81
2022/03/15 12:24:16;;;;;;;;;;;10.30;99.90;;;;;;5131448;27;19966;-81
2022/03/15 12:26:44;;;;;;;;;;;10.30;99.90;;;;;;5133725;27;19967;-82
2022/03/15 12:29:14;;;;;;;;;;;10.30;99.90;;;;;;5133231;27;19978;-82
2022/03/15 12:31:41;;;;;;;;;;;10.40;99.90;;;;;;5116652;28;19923;-82
2022/03/15 12:34:08;;;;;;;;;;;10.50;99.90;;;;;;5117885;27;20301;-81
2022/03/15 12:36:37;;;;;;;;;;;10.50;99.90;;;;;;5136696;27;19927;-82
2022/03/15 12:39:10;;;;;;;;;;;10.40;99.90;;;;;;5153970;27;19982;-82
2022/03/15 12:41:35;;;;;;;;;;;10.40;99.90;;;;;;5175639;27;20018;-82
2022/03/15 12:44:01;;;;;;;;;;;10.40;99.90;;;;;;5128676;27;19987;-82
2022/03/15 12:46:30;;;;;;;;;;;10.40;99.90;;;;;;5140809;27;19927;-83
2022/03/15 12:49:04;;;;;;;;;;;10.40;99.90;;;;;;5120364;27;19930;-84
2022/03/15 12:51:51;;;;;;;;;;;10.40;99.90;;;;;;5136459;27;19923;-82
2022/03/15 12:54:17;;;;;;;;;;;10.50;99.90;;;;;;5146342;27;20259;-84
2022/03/15 12:56:44;;;;;;;;;;;10.40;99.90;;;;;;5125471;27;19930;-83
2022/03/15 12:59:16;;;;;;;;;;;10.50;99.90;;;;;;5119125;27;19923;-80
2022/03/15 13:01:46;;;;;;;;;;;10.50;99.90;;;;;;5121508;27;20389;-82
2022/03/15 13:04:12;;;;;;;;;;;10.40;99.90;;;;;;5144962;27;19930;-83
2022/03/15 13:06:40;;;;;;;;;;;10.40;99.90;;;;;;5135788;27;19927;-83
2022/03/15 13:09:06;;;;;;;;;;;10.50;99.90;;;;;;5133961;27;19929;-82
2022/03/15 13:11:33;;;;;;;;;;;10.50;99.90;;;;;;5132036;27;20321;-82
2022/03/15 13:13:59;;;;;;;;;;;10.50;99.90;;;;;;5122886;27;20010;-82
2022/03/15 13:16:25;;;;;;;;;;;10.50;99.90;;;;;;5143906;27;20393;-83
2022/03/15 13:18:50;;;;;;;;;;;10.60;99.90;;;;;;5130137;27;20010;-81
2022/03/15 13:21:16;;;;;;;;;;;10.60;99.90;;;;;;5142280;27;19988;-81
2022/03/15 13:23:45;;;;;;;;;;;10.60;99.90;;;;;;5135175;27;19958;-81
2022/03/15 13:26:12;;;;;;;;;;;10.60;99.90;;;;;;5153086;27;20477;-82
2022/03/15 13:28:43;;;;;;;;;;;10.60;99.90;;;;;;5144495;27;19923;-82
2022/03/15 13:31:11;;;;;;;;;;;10.60;99.90;;;;;;5150853;27;19923;-82
2022/03/15 13:33:38;;;;;;;;;;;10.60;99.90;;;;;;5146168;27;20006;-82
2022/03/15 13:36:05;;;;;;;;;;;10.60;99.90;;;;;;5133772;27;19923;-82
2022/03/15 13:38:34;;;;;;;;;;;10.70;99.90;;;;;;5157999;27;19926;-81
2022/03/15 13:41:00;;;;;;;;;;;10.60;99.90;;;;;;5128210;27;20410;-84
2022/03/15 13:43:27;;;;;;;;;;;10.60;99.90;;;;;;5125301;27;19923;-82
2022/03/15 13:45:54;;;;;;;;;;;10.60;99.90;;;;;;5142017;27;19930;-81
2022/03/15 13:48:27;;;;;;;;;;;10.60;99.90;;;;;;5138815;27;19927;-82
2022/03/15 13:51:00;;;;;;;;;;;10.70;99.90;;;;;;5136432;27;19923;-81
2022/03/15 13:53:26;;;;;;;;;;;10.70;99.90;;;;;;5120704;27;19930;-82
2022/03/15 13:55:53;;;;;;;;;;;10.80;99.90;;;;;;5140254;27;19934;-81
2022/03/15 13:58:28;;;;;;;;;;;10.70;99.90;;;;;;5139573;27;20729;-82
2022/03/15 14:01:01;;;;;;;;;;;10.70;99.90;;;;;;5140098;27;19974;-82
2022/03/15 14:03:27;;;;;;;;;;;10.70;99.90;;;;;;5145091;27;19923;-82
2022/03/15 14:05:59;;;;;;;;;;;10.70;99.90;;;;;;5139657;27;19992;-82
2022/03/15 14:08:24;;;;;;;;;;;10.80;99.90;;;;;;5147672;27;20009;-81
2022/03/15 14:10:53;;;;;;;;;;;10.80;99.90;;;;;;5123734;27;20057;-82
2022/03/15 14:13:20;;;;;;;;;;;10.90;99.90;;;;;;5143260;27;19946;-83
2022/03/15 14:15:47;;;;;;;;;;;11.00;99.90;;;;;;5151931;27;19930;-82
2022/03/15 14:18:23;;;;;;;;;;;11.00;99.90;;;;;;5125413;27;20414;-82
2022/03/15 14:20:49;;;;;;;;;;;11.20;99.90;;;;;;5152980;27;20375;-82
2022/03/15 14:23:14;;;;;;;;;;;11.30;99.90;;;;;;5159314;27;19923;-82
2022/03/15 14:25:40;;;;;;;;;;;11.50;99.90;;;;;;5141446;27;19949;-84